createdAt,value
2019-01-04T00:01:42.552Z,4.06
2019-01-04T00:04:20.142Z,4.06
2019-01-04T00:06:50.623Z,3.99
2019-01-04T00:09:20.986Z,4.01
2019-01-04T00:11:51.445Z,3.93
2019-01-04T00:14:21.994Z,3.94
2019-01-04T00:16:52.428Z,3.89
2019-01-04T00:19:22.771Z,3.96
2019-01-04T00:21:53.800Z,3.93
2019-01-04T00:24:24.515Z,3.86
2019-01-04T00:26:54.986Z,3.81
2019-01-04T00:29:25.431Z,3.76
2019-01-04T00:31:55.849Z,3.74
2019-01-04T00:34:26.283Z,3.75
2019-01-04T00:36:57.000Z,3.76
2019-01-04T00:39:27.688Z,3.71
2019-01-04T00:41:58.146Z,3.70
2019-01-04T00:44:28.864Z,3.76
2019-01-04T00:46:59.848Z,3.75
2019-01-04T00:49:30.354Z,3.78
2019-01-04T00:52:01.109Z,3.85
2019-01-04T00:54:31.578Z,3.87
2019-01-04T00:57:31.059Z,3.91
2019-01-04T01:01:06.614Z,3.95
2019-01-04T01:04:29.237Z,3.96
2019-01-04T01:08:00.081Z,3.97
2019-01-04T01:11:44.434Z,4.01
2019-01-04T01:15:44.489Z,4.08
2019-01-04T01:19:10.299Z,4.08
2019-01-04T01:26:19.124Z,4.15
2019-01-04T01:29:20.620Z,4.16
2019-01-04T01:32:48.583Z,4.15
2019-01-04T01:35:33.868Z,4.17
2019-01-04T01:39:01.836Z,4.19
2019-01-04T01:42:03.296Z,4.22
2019-01-04T01:45:31.057Z,4.19
2019-01-04T01:48:35.325Z,4.21
2019-01-04T01:51:49.036Z,4.27
2019-01-04T01:54:31.018Z,4.19
2019-01-04T01:57:20.603Z,4.22
2019-01-04T02:00:03.010Z,4.24
2019-01-04T02:02:52.580Z,4.28
2019-01-04T02:05:35.193Z,4.27
2019-01-04T02:08:17.293Z,4.25
2019-01-04T02:10:48.069Z,4.28
2019-01-04T02:13:37.933Z,4.29
2019-01-04T02:16:20.140Z,4.30
2019-01-04T02:19:09.180Z,4.23
2019-01-04T02:21:50.712Z,4.23
2019-01-04T02:24:21.141Z,4.23
2019-01-04T02:26:51.738Z,4.19
2019-01-04T02:29:22.166Z,4.14
2019-01-04T02:31:52.557Z,4.11
2019-01-04T02:34:22.970Z,4.13
2019-01-04T02:36:53.463Z,4.15
2019-01-04T02:39:23.872Z,4.16
2019-01-04T02:41:54.376Z,4.12
2019-01-04T02:44:24.743Z,4.00
2019-01-04T02:46:55.351Z,4.02
2019-01-04T02:49:25.948Z,3.97
2019-01-04T02:51:56.603Z,3.97
2019-01-04T02:54:26.818Z,3.89
2019-01-04T02:56:57.168Z,3.87
2019-01-04T02:59:27.444Z,3.86
2019-01-04T03:01:58.006Z,3.81
2019-01-04T03:04:28.214Z,3.76
2019-01-04T03:06:58.502Z,3.69
2019-01-04T03:09:28.956Z,3.63
2019-01-04T03:11:59.320Z,3.56
2019-01-04T03:14:29.986Z,3.51
2019-01-04T03:17:00.389Z,3.47
2019-01-04T03:19:30.835Z,3.44
2019-01-04T03:22:01.312Z,3.43
2019-01-04T03:24:32.049Z,3.44
2019-01-04T03:27:02.407Z,3.44
2019-01-04T03:29:32.936Z,3.50
2019-01-04T03:32:03.270Z,3.53
2019-01-04T03:34:33.993Z,3.55
2019-01-04T03:37:04.833Z,3.54
2019-01-04T03:39:35.451Z,3.52
2019-01-04T03:42:05.919Z,3.50
2019-01-04T03:44:36.472Z,3.50
2019-01-04T03:47:07.369Z,3.49
2019-01-04T03:49:38.007Z,3.52
2019-01-04T03:52:08.597Z,3.51
2019-01-04T03:54:39.005Z,3.53
2019-01-04T03:57:09.354Z,3.54
2019-01-04T03:59:39.657Z,3.54
2019-01-04T04:02:10.291Z,3.54
2019-01-04T04:04:40.619Z,3.54
2019-01-04T04:07:10.947Z,3.66
2019-01-04T04:09:41.250Z,3.62
2019-01-04T04:12:11.686Z,3.59
2019-01-04T04:14:42.066Z,3.57
2019-01-04T04:17:12.773Z,3.57
2019-01-04T04:19:43.194Z,3.56
2019-01-04T04:22:13.567Z,3.57
2019-01-04T04:24:43.992Z,3.60
2019-01-04T04:27:14.448Z,3.64
2019-01-04T04:29:44.943Z,3.67
2019-01-04T04:32:15.469Z,3.69
2019-01-04T04:34:47.096Z,3.72
2019-01-04T04:37:17.341Z,3.70
2019-01-04T04:40:06.980Z,3.76
2019-01-04T04:42:56.407Z,3.76
2019-01-04T04:45:38.683Z,3.79
2019-01-04T04:48:28.109Z,3.80
2019-01-04T04:51:10.393Z,3.80
2019-01-04T04:54:00.450Z,3.81
2019-01-04T04:56:40.965Z,3.85
2019-01-04T04:59:30.796Z,3.83
2019-01-04T05:02:01.197Z,3.85
2019-01-04T05:04:31.550Z,3.87
2019-01-04T05:07:02.222Z,3.89
2019-01-04T05:09:32.452Z,3.96
2019-01-04T05:12:02.807Z,3.93
2019-01-04T05:14:33.440Z,3.93
2019-01-04T05:17:03.809Z,3.93
2019-01-04T05:19:53.601Z,3.94
2019-01-04T05:22:35.652Z,3.99
2019-01-04T05:25:25.407Z,4.02
2019-01-04T05:28:07.726Z,3.99
2019-01-04T05:30:57.350Z,4.00
2019-01-04T05:33:39.815Z,4.03
2019-01-04T05:39:35.987Z,4.07
2019-01-04T05:45:26.856Z,4.05
2019-01-04T05:48:09.224Z,4.07
2019-01-04T05:50:58.742Z,4.06
2019-01-04T05:53:40.906Z,4.10
2019-01-04T05:59:18.308Z,4.07
2019-01-04T06:02:08.001Z,4.03
2019-01-04T06:04:50.254Z,4.03
2019-01-04T06:07:40.369Z,4.00
2019-01-04T06:10:23.288Z,4.00
2019-01-04T06:13:12.890Z,4.04
2019-01-04T06:15:55.724Z,4.07
2019-01-04T06:18:25.995Z,4.11
2019-01-04T06:20:56.258Z,4.06
2019-01-04T06:23:26.624Z,4.10
2019-01-04T06:25:56.956Z,4.41
2019-01-04T06:28:27.274Z,4.24
2019-01-04T06:30:57.739Z,4.15
2019-01-04T06:33:28.074Z,4.17
2019-01-04T06:35:58.470Z,4.22
2019-01-04T06:38:28.855Z,4.24
2019-01-04T06:40:59.283Z,4.18
2019-01-04T06:43:30.034Z,4.15
2019-01-04T06:46:00.700Z,4.19
2019-01-04T06:48:31.094Z,4.17
2019-01-04T06:51:01.822Z,4.23
2019-01-04T06:53:32.258Z,4.25
2019-01-04T06:56:04.206Z,4.26
2019-01-04T06:58:34.524Z,4.28
2019-01-04T07:01:04.984Z,4.33
2019-01-04T07:03:35.433Z,4.34
2019-01-04T07:06:05.888Z,4.36
2019-01-04T07:08:36.286Z,4.35
2019-01-04T07:11:06.833Z,4.37
2019-01-04T07:13:37.306Z,4.44
2019-01-04T07:16:07.736Z,4.43
2019-01-04T07:18:38.524Z,4.44
2019-01-04T07:21:09.125Z,4.45
2019-01-04T07:23:39.754Z,4.47
2019-01-04T07:26:10.281Z,4.49
2019-01-04T07:28:40.675Z,4.54
2019-01-04T07:31:10.963Z,4.47
2019-01-04T07:33:41.594Z,4.47
2019-01-04T07:36:11.984Z,4.54
2019-01-04T07:38:42.352Z,4.47
2019-01-04T07:41:31.947Z,4.50
2019-01-04T07:44:13.837Z,4.51
2019-01-04T07:47:22.264Z,4.49
2019-01-04T07:50:04.866Z,4.48
2019-01-04T07:52:54.673Z,4.46
2019-01-04T07:55:25.190Z,4.45
2019-01-04T07:57:55.833Z,4.37
2019-01-04T08:00:26.575Z,4.39
2019-01-04T08:03:01.741Z,4.44
2019-01-04T08:05:32.201Z,4.43
2019-01-04T08:08:02.935Z,4.46
2019-01-04T08:10:33.394Z,4.44
2019-01-04T08:13:04.339Z,4.42
2019-01-04T08:15:34.720Z,4.43
2019-01-04T08:18:05.106Z,4.38
2019-01-04T08:20:35.426Z,4.45
2019-01-04T08:23:06.200Z,4.48
2019-01-04T08:25:36.719Z,4.48
2019-01-04T08:28:26.301Z,4.52
2019-01-04T08:34:30.034Z,4.56
2019-01-04T08:37:12.524Z,4.58
2019-01-04T08:40:02.458Z,4.62
2019-01-04T08:42:44.332Z,4.62
2019-01-04T08:45:33.937Z,4.64
2019-01-04T08:48:16.316Z,4.71
2019-01-04T08:51:05.996Z,4.74
2019-01-04T08:53:55.622Z,4.78
2019-01-04T08:56:45.148Z,4.82
2019-01-04T08:59:27.437Z,4.88
2019-01-04T09:02:16.982Z,4.82
2019-01-04T09:04:59.464Z,4.82
2019-01-04T09:07:49.007Z,4.82
2019-01-04T09:10:31.252Z,4.91
2019-01-04T09:13:20.799Z,4.90
2019-01-04T09:16:02.870Z,4.92
2019-01-04T09:21:29.820Z,4.95
2019-01-04T09:24:00.215Z,4.97
2019-01-04T09:26:30.720Z,5.00
2019-01-04T09:29:01.492Z,5.00
2019-01-04T09:31:31.862Z,4.97
2019-01-04T09:34:02.505Z,5.02
2019-01-04T09:36:33.229Z,5.08
2019-01-04T09:39:04.218Z,5.11
2019-01-04T09:41:49.574Z,5.14
2019-01-04T09:44:19.943Z,5.17
2019-01-04T09:46:50.303Z,5.18
2019-01-04T09:49:20.602Z,5.18
2019-01-04T09:51:51.058Z,5.20
2019-01-04T09:54:21.449Z,5.28
2019-01-04T09:56:51.831Z,5.28
2019-01-04T09:59:22.409Z,5.19
2019-01-04T10:01:52.847Z,5.16
2019-01-04T10:04:23.232Z,5.23
2019-01-04T10:06:53.624Z,5.25
2019-01-04T10:09:23.939Z,5.22
2019-01-04T10:11:54.753Z,5.26
2019-01-04T10:14:25.396Z,5.22
2019-01-04T10:16:55.989Z,5.24
2019-01-04T10:19:27.120Z,5.20
2019-01-04T10:21:57.804Z,5.26
2019-01-04T10:24:28.613Z,5.26
2019-01-04T10:26:59.223Z,5.24
2019-01-04T10:29:30.019Z,5.28
2019-01-04T10:32:00.483Z,5.35
2019-01-04T10:34:30.867Z,5.37
2019-01-04T10:37:01.536Z,5.50
2019-01-04T10:39:32.138Z,5.55
2019-01-04T10:42:02.440Z,5.54
2019-01-04T10:44:33.065Z,5.67
2019-01-04T10:47:03.584Z,5.67
2019-01-04T10:49:34.102Z,5.66
2019-01-04T10:52:04.552Z,5.70
2019-01-04T10:54:35.030Z,5.72
2019-01-04T10:57:05.812Z,5.69
2019-01-04T10:59:36.604Z,5.64
2019-01-04T11:02:07.311Z,5.62
2019-01-04T11:04:59.288Z,5.56
2019-01-04T11:10:49.689Z,5.55
2019-01-04T11:16:40.717Z,5.52
2019-01-04T11:19:30.233Z,5.48
2019-01-04T11:22:31.791Z,5.48
2019-01-04T11:25:33.168Z,5.55
2019-01-04T11:32:44.283Z,5.53
2019-01-04T11:36:05.902Z,5.44
2019-01-04T11:39:37.275Z,5.44
2019-01-04T11:43:09.744Z,5.40
2019-01-04T11:46:29.646Z,5.48
2019-01-04T11:49:48.407Z,5.49
2019-01-04T11:52:33.817Z,5.48
2019-01-04T11:55:04.791Z,5.48
2019-01-04T11:57:35.342Z,5.47
2019-01-04T12:00:08.091Z,5.50
2019-01-04T12:02:38.692Z,5.52
2019-01-04T12:05:10.909Z,5.52
2019-01-04T12:07:41.713Z,5.54
2019-01-04T12:10:12.227Z,5.57
2019-01-04T12:12:42.739Z,5.53
2019-01-04T12:15:13.366Z,5.56
2019-01-04T12:17:43.968Z,5.57
2019-01-04T12:20:14.493Z,5.52
2019-01-04T12:22:45.009Z,5.53
2019-01-04T12:25:15.540Z,5.56
2019-01-04T12:27:46.438Z,5.56
2019-01-04T12:30:16.953Z,5.51
2019-01-04T12:32:47.577Z,5.50
2019-01-04T12:35:17.932Z,5.52
2019-01-04T12:37:48.321Z,5.51
2019-01-04T12:40:18.756Z,5.53
2019-01-04T12:42:49.029Z,5.50
2019-01-04T12:45:19.479Z,5.50
2019-01-04T12:47:49.842Z,5.43
2019-01-04T12:50:20.210Z,5.47
2019-01-04T12:52:51.297Z,5.48
2019-01-04T12:55:21.764Z,5.53
2019-01-04T12:57:52.402Z,5.48
2019-01-04T13:00:23.187Z,5.43
2019-01-04T13:02:53.577Z,5.41
2019-01-04T13:05:24.192Z,5.40
2019-01-04T13:07:54.944Z,5.48
2019-01-04T13:10:25.521Z,5.49
2019-01-04T13:12:55.762Z,5.54
2019-01-04T13:15:26.191Z,5.50
2019-01-04T13:17:56.732Z,5.45
2019-01-04T13:20:27.260Z,5.48
2019-01-04T13:22:57.527Z,5.44
2019-01-04T13:25:27.896Z,5.33
2019-01-04T13:27:58.670Z,5.29
2019-01-04T13:30:29.178Z,5.24
2019-01-04T13:32:59.612Z,5.28
2019-01-04T13:35:30.107Z,5.33
2019-01-04T13:38:00.725Z,5.29
2019-01-04T13:40:31.429Z,5.28
2019-01-04T13:43:01.831Z,5.23
2019-01-04T13:45:32.271Z,5.25
2019-01-04T13:48:02.665Z,5.27
2019-01-04T13:50:32.977Z,5.20
2019-01-04T13:53:03.339Z,5.19
2019-01-04T13:55:34.102Z,5.18
2019-01-04T13:58:05.628Z,5.16
2019-01-04T14:00:36.081Z,5.12
2019-01-04T14:03:06.768Z,5.11
2019-01-04T14:05:37.238Z,5.10
2019-01-04T14:08:07.990Z,5.11
2019-01-04T14:10:38.348Z,5.10
2019-01-04T14:13:09.384Z,5.08
2019-01-04T14:15:40.245Z,5.11
2019-01-04T14:18:10.786Z,5.08
2019-01-04T14:20:41.398Z,5.03
2019-01-04T14:23:11.815Z,5.05
2019-01-04T14:25:42.334Z,5.00
2019-01-04T14:28:13.145Z,4.97
2019-01-04T14:30:43.526Z,4.94
2019-01-04T14:33:14.022Z,4.91
2019-01-04T14:35:44.497Z,4.95
2019-01-04T14:38:14.916Z,4.91
2019-01-04T14:40:45.280Z,4.91
2019-01-04T14:43:15.919Z,4.89
2019-01-04T14:45:46.287Z,4.86
2019-01-04T14:48:16.760Z,4.86
2019-01-04T14:50:47.211Z,4.83
2019-01-04T14:53:17.677Z,4.84
2019-01-04T14:55:47.966Z,4.81
2019-01-04T14:58:18.420Z,4.77
2019-01-04T15:00:48.789Z,4.75
2019-01-04T15:03:19.160Z,4.74
2019-01-04T15:05:50.525Z,4.73
2019-01-04T15:08:20.949Z,4.72
2019-01-04T15:10:51.255Z,4.67
2019-01-04T15:13:21.949Z,4.70
2019-01-04T15:15:52.373Z,4.72
2019-01-04T15:18:22.751Z,4.70
2019-01-04T15:20:53.224Z,4.69
2019-01-04T15:23:23.629Z,4.67
2019-01-04T15:25:53.966Z,4.65
2019-01-04T15:28:24.278Z,4.67
2019-01-04T15:30:54.634Z,4.68
2019-01-04T15:33:24.992Z,4.65
2019-01-04T15:35:55.700Z,4.59
2019-01-04T15:38:25.996Z,4.58
2019-01-04T15:40:56.328Z,4.55
2019-01-04T15:43:26.709Z,4.55
2019-01-04T15:45:56.993Z,4.57
2019-01-04T15:48:27.268Z,4.52
2019-01-04T15:50:57.654Z,4.57
2019-01-04T15:53:28.100Z,4.57
2019-01-04T15:55:58.504Z,4.51
2019-01-04T15:58:28.742Z,4.54
2019-01-04T16:00:59.223Z,4.50
2019-01-04T16:03:30.148Z,4.50
2019-01-04T16:06:00.613Z,4.51
2019-01-04T16:08:31.159Z,4.45
2019-01-04T16:11:01.846Z,4.43
2019-01-04T16:13:32.145Z,4.41
2019-01-04T16:16:02.780Z,4.36
2019-01-04T16:18:33.379Z,4.34
2019-01-04T16:21:03.939Z,4.33
2019-01-04T16:23:34.836Z,4.33
2019-01-04T16:26:05.263Z,4.35
2019-01-04T16:28:35.940Z,4.38
2019-01-04T16:31:06.584Z,4.38
2019-01-04T16:33:37.031Z,4.41
2019-01-04T16:36:07.507Z,4.37
2019-01-04T16:38:37.780Z,4.34
2019-01-04T16:41:08.217Z,4.37
2019-01-04T16:43:38.693Z,4.28
2019-01-04T16:46:09.447Z,4.30
2019-01-04T16:48:40.137Z,4.32
2019-01-04T16:51:10.779Z,4.25
2019-01-04T16:53:41.214Z,4.25
2019-01-04T16:56:13.821Z,4.26
2019-01-04T16:58:44.384Z,4.23
2019-01-04T17:01:14.657Z,4.23
2019-01-04T17:03:45.357Z,4.17
2019-01-04T17:06:15.869Z,4.15
2019-01-04T17:08:46.262Z,4.18
2019-01-04T17:11:16.815Z,4.11
2019-01-04T17:13:47.809Z,4.09
2019-01-04T17:16:18.576Z,4.13
2019-01-04T17:18:49.171Z,4.07
2019-01-04T17:21:19.535Z,4.09
2019-01-04T17:23:50.138Z,4.07
2019-01-04T17:26:20.621Z,4.06
2019-01-04T17:28:50.991Z,3.99
2019-01-04T17:31:24.369Z,4.00
2019-01-04T17:33:54.806Z,4.02
2019-01-04T17:36:25.191Z,4.01
2019-01-04T17:38:55.401Z,3.91
2019-01-04T17:41:25.767Z,3.93
2019-01-04T17:43:56.510Z,3.96
2019-01-04T17:46:27.433Z,3.97
2019-01-04T17:48:58.118Z,3.98
2019-01-04T17:51:28.697Z,3.96
2019-01-04T17:53:59.048Z,3.94
2019-01-04T17:56:29.468Z,3.96
2019-01-04T17:58:59.919Z,3.91
2019-01-04T18:01:30.270Z,3.87
2019-01-04T18:04:00.596Z,3.93
2019-01-04T18:06:31.216Z,3.91
2019-01-04T18:09:02.153Z,3.96
2019-01-04T18:11:33.344Z,3.96
2019-01-04T18:14:03.864Z,3.93
2019-01-04T18:16:34.594Z,3.97
2019-01-04T18:19:04.980Z,3.94
2019-01-04T18:21:35.176Z,3.95
2019-01-04T18:24:05.911Z,3.90
2019-01-04T18:26:36.292Z,3.95
2019-01-04T18:29:06.567Z,3.90
2019-01-04T18:31:37.186Z,3.97
2019-01-04T18:34:07.535Z,3.99
2019-01-04T18:36:37.982Z,3.99
2019-01-04T18:39:08.790Z,3.97
2019-01-04T18:41:39.136Z,3.95
2019-01-04T18:44:09.505Z,4.01
2019-01-04T18:46:39.959Z,4.01
2019-01-04T18:49:10.176Z,3.98
2019-01-04T18:51:40.618Z,4.00
2019-01-04T18:54:11.003Z,3.95
2019-01-04T18:56:43.578Z,3.97
2019-01-04T18:59:13.890Z,3.99
2019-01-04T19:01:44.594Z,3.96
2019-01-04T19:04:14.971Z,4.02
2019-01-04T19:06:45.564Z,4.04
2019-01-04T19:09:16.284Z,3.97
2019-01-04T19:11:49.187Z,3.95
2019-01-04T19:14:19.468Z,3.97
2019-01-04T19:16:49.818Z,3.98
2019-01-04T19:19:20.471Z,3.97
2019-01-04T19:21:51.057Z,3.95
2019-01-04T19:24:32.869Z,3.97
2019-01-04T19:27:22.483Z,3.99
2019-01-04T19:30:04.836Z,4.02
2019-01-04T19:32:47.623Z,3.99
2019-01-04T19:35:37.506Z,3.98
2019-01-04T19:38:19.798Z,4.01
2019-01-04T19:41:09.619Z,3.96
2019-01-04T19:43:51.839Z,3.98
2019-01-04T19:46:41.456Z,4.00
2019-01-04T19:49:23.771Z,4.05
2019-01-04T19:51:54.512Z,3.99
2019-01-04T19:54:24.837Z,3.95
2019-01-04T19:56:55.427Z,3.97
2019-01-04T19:59:25.925Z,3.97
2019-01-04T20:01:56.256Z,4.00
2019-01-04T20:04:27.496Z,3.98
2019-01-04T20:08:01.727Z,4.05
2019-01-04T20:11:27.628Z,4.05
2019-01-04T20:14:40.618Z,4.05
2019-01-04T20:17:52.557Z,4.05
2019-01-04T20:20:53.976Z,4.11
2019-01-04T20:23:55.529Z,4.12
2019-01-04T20:26:43.556Z,4.08
2019-01-04T20:29:31.446Z,4.12
2019-01-04T20:32:40.290Z,4.10
2019-01-04T20:35:41.788Z,4.12
2019-01-04T20:38:50.763Z,4.11
2019-01-04T20:41:57.588Z,4.13
2019-01-04T20:45:06.400Z,4.15
2019-01-04T20:47:56.032Z,4.12
2019-01-04T20:51:04.830Z,4.16
2019-01-04T20:54:06.411Z,4.21
2019-01-04T20:57:08.268Z,4.17
2019-01-04T20:59:56.422Z,4.25
2019-01-04T21:02:44.873Z,4.22
2019-01-04T21:05:29.750Z,4.30
2019-01-04T21:08:18.035Z,4.22
2019-01-04T21:11:16.423Z,4.25
2019-01-04T21:14:23.928Z,4.21
2019-01-04T21:17:15.263Z,4.25
2019-01-04T21:20:03.571Z,4.24
2019-01-04T21:23:02.278Z,4.25
2019-01-04T21:25:50.096Z,4.29
2019-01-04T21:28:39.972Z,4.23
2019-01-04T21:31:27.939Z,4.26
2019-01-04T21:34:32.468Z,4.26
2019-01-04T21:37:26.354Z,4.28
2019-01-04T21:40:14.442Z,4.22
2019-01-04T21:43:02.354Z,4.27
2019-01-04T21:45:49.955Z,4.35
2019-01-04T21:48:57.314Z,4.33
2019-01-04T21:51:46.733Z,4.30
2019-01-04T21:54:44.928Z,4.34
2019-01-04T21:57:32.687Z,4.38
2019-01-04T22:00:25.119Z,4.38
2019-01-04T22:03:13.104Z,4.40
2019-01-04T22:06:11.563Z,4.37
2019-01-04T22:09:07.179Z,4.37
2019-01-04T22:11:50.357Z,4.37
2019-01-04T22:14:45.373Z,4.38
2019-01-04T22:17:34.888Z,4.42
2019-01-04T22:20:23.578Z,4.39
2019-01-04T22:23:22.171Z,4.47
2019-01-04T22:26:14.223Z,4.48
2019-01-04T22:29:15.580Z,4.51
2019-01-04T22:32:04.759Z,4.44
2019-01-04T22:34:49.362Z,4.44
2019-01-04T22:37:38.677Z,4.51
2019-01-04T22:40:27.997Z,4.53
2019-01-04T22:43:38.543Z,4.52
2019-01-04T22:46:27.587Z,4.56
2019-01-04T22:49:11.816Z,4.60
2019-01-04T22:52:03.735Z,4.63
2019-01-04T22:54:56.249Z,4.64
2019-01-04T22:57:44.072Z,4.62
2019-01-04T23:00:44.709Z,4.63
2019-01-04T23:03:32.518Z,4.64
2019-01-04T23:06:24.803Z,4.68
2019-01-04T23:09:17.565Z,4.72
2019-01-04T23:12:06.898Z,4.71
2019-01-04T23:14:59.035Z,4.70
2019-01-04T23:17:54.052Z,4.73
2019-01-04T23:20:49.483Z,4.75
2019-01-04T23:23:42.591Z,4.78
2019-01-04T23:26:30.656Z,4.75
2019-01-04T23:29:37.689Z,4.74
2019-01-04T23:32:27.055Z,4.74
2019-01-04T23:35:22.568Z,4.72
2019-01-04T23:38:11.405Z,4.72
2019-01-04T23:41:15.523Z,4.77
2019-01-04T23:44:22.960Z,4.78
2019-01-04T23:47:23.906Z,4.81
2019-01-04T23:50:19.091Z,4.81
2019-01-04T23:53:06.869Z,4.82
2019-01-04T23:55:52.821Z,4.85
2019-01-04T23:58:41.700Z,4.83
